sensor_id;sensor_type;location;lat;lon;timestamp;pressure;altitude;pressure_sealevel;temperature;humidity
64679;BME280;51094;53.864;27.676;2022-10-24T00:01:21;99184.53;;;9.79;75.57
64679;BME280;51094;53.864;27.676;2022-10-24T00:03:49;99190.66;;;9.78;75.53
64679;BME280;51094;53.864;27.676;2022-10-24T00:06:16;99176.44;;;9.46;76.33
64679;BME280;51094;53.864;27.676;2022-10-24T00:08:44;99102.94;;;9.32;75.94
64679;BME280;51094;53.864;27.676;2022-10-24T00:11:14;99209.00;;;10.00;76.19
64679;BME280;51094;53.864;27.676;2022-10-24T00:13:42;99108.66;;;9.38;75.84
64679;BME280;51094;53.864;27.676;2022-10-24T00:16:09;99204.53;;;10.02;75.73
64679;BME280;51094;53.864;27.676;2022-10-24T00:18:36;99197.69;;;10.01;75.57
64679;BME280;51094;53.864;27.676;2022-10-24T00:21:04;99156.50;;;9.72;75.44
64679;BME280;51094;53.864;27.676;2022-10-24T00:23:31;99196.25;;;9.97;76.14
64679;BME280;51094;53.864;27.676;2022-10-24T00:25:57;99204.34;;;10.06;76.05
64679;BME280;51094;53.864;27.676;2022-10-24T00:28:28;99088.63;;;9.40;75.38
64679;BME280;51094;53.864;27.676;2022-10-24T00:30:54;99211.41;;;10.04;75.76
64679;BME280;51094;53.864;27.676;2022-10-24T00:33:21;99095.47;;;9.41;75.88
64679;BME280;51094;53.864;27.676;2022-10-24T00:35:48;99105.22;;;9.50;75.67
64679;BME280;51094;53.864;27.676;2022-10-24T00:38:15;99193.72;;;10.09;75.70
64679;BME280;51094;53.864;27.676;2022-10-24T00:40:42;99196.34;;;10.09;75.85
64679;BME280;51094;53.864;27.676;2022-10-24T00:43:17;99148.38;;;9.76;75.56
64679;BME280;51094;53.864;27.676;2022-10-24T00:46:01;99188.84;;;10.04;76.11
64679;BME280;51094;53.864;27.676;2022-10-24T00:48:44;99050.94;;;8.83;75.85
64679;BME280;51094;53.864;27.676;2022-10-24T00:51:23;99195.50;;;10.21;76.04
64679;BME280;51094;53.864;27.676;2022-10-24T00:53:59;99204.03;;;10.23;75.65
64679;BME280;51094;53.864;27.676;2022-10-24T00:56:31;99181.16;;;10.15;75.45
64679;BME280;51094;53.864;27.676;2022-10-24T00:59:02;99113.09;;;9.61;75.45
64679;BME280;51094;53.864;27.676;2022-10-24T01:01:30;99206.72;;;10.34;74.93
64679;BME280;51094;53.864;27.676;2022-10-24T01:03:57;99212.75;;;10.35;75.29
64679;BME280;51094;53.864;27.676;2022-10-24T01:06:52;99214.41;;;10.36;74.78
64679;BME280;51094;53.864;27.676;2022-10-24T01:15:32;99142.16;;;9.91;74.49
64679;BME280;51094;53.864;27.676;2022-10-24T01:18:14;99223.31;;;10.44;74.25
64679;BME280;51094;53.864;27.676;2022-10-24T01:21:06;99208.09;;;10.51;73.64
64679;BME280;51094;53.864;27.676;2022-10-24T01:23:59;99207.06;;;10.53;73.96
64679;BME280;51094;53.864;27.676;2022-10-24T01:27:00;99210.16;;;10.58;73.89
64679;BME280;51094;53.864;27.676;2022-10-24T01:32:13;98845.53;;;8.29;72.82
64679;BME280;51094;53.864;27.676;2022-10-24T01:35:07;99215.38;;;10.58;73.34
64679;BME280;51094;53.864;27.676;2022-10-24T01:40:19;99211.31;;;10.54;72.68
64679;BME280;51094;53.864;27.676;2022-10-24T01:42:47;99213.31;;;10.51;72.74
64679;BME280;51094;53.864;27.676;2022-10-24T01:45:21;99078.50;;;9.73;72.91
64679;BME280;51094;53.864;27.676;2022-10-24T01:47:52;99020.34;;;9.14;73.05
64679;BME280;51094;53.864;27.676;2022-10-24T01:50:21;99187.69;;;10.33;73.10
64679;BME280;51094;53.864;27.676;2022-10-24T01:52:49;99227.63;;;10.56;73.74
64679;BME280;51094;53.864;27.676;2022-10-24T01:55:16;99095.59;;;9.88;73.03
64679;BME280;51094;53.864;27.676;2022-10-24T01:57:43;99183.59;;;10.42;72.95
64679;BME280;51094;53.864;27.676;2022-10-24T02:00:17;99062.00;;;9.61;73.12
64679;BME280;51094;53.864;27.676;2022-10-24T02:02:48;99187.19;;;10.28;73.49
64679;BME280;51094;53.864;27.676;2022-10-24T02:05:28;99212.59;;;10.49;73.67
64679;BME280;51094;53.864;27.676;2022-10-24T02:08:01;99227.84;;;10.53;73.74
64679;BME280;51094;53.864;27.676;2022-10-24T02:10:32;99251.56;;;10.61;73.60
64679;BME280;51094;53.864;27.676;2022-10-24T02:13:04;99209.72;;;10.64;73.18
64679;BME280;51094;53.864;27.676;2022-10-24T02:15:35;99213.28;;;10.63;73.41
64679;BME280;51094;53.864;27.676;2022-10-24T02:18:04;99178.91;;;10.47;73.42
64679;BME280;51094;53.864;27.676;2022-10-24T02:20:41;99214.81;;;10.66;73.31
64679;BME280;51094;53.864;27.676;2022-10-24T02:23:26;99085.31;;;9.87;73.58
64679;BME280;51094;53.864;27.676;2022-10-24T02:25:59;99207.84;;;10.66;73.10
64679;BME280;51094;53.864;27.676;2022-10-24T02:28:33;99209.72;;;10.64;73.10
64679;BME280;51094;53.864;27.676;2022-10-24T02:31:11;98978.34;;;9.09;73.29
64679;BME280;51094;53.864;27.676;2022-10-24T02:33:43;99180.88;;;10.44;72.82
64679;BME280;51094;53.864;27.676;2022-10-24T02:36:13;99212.66;;;10.60;73.10
64679;BME280;51094;53.864;27.676;2022-10-24T02:38:43;99221.59;;;10.56;73.37
64679;BME280;51094;53.864;27.676;2022-10-24T02:41:14;99061.16;;;9.61;73.50
64679;BME280;51094;53.864;27.676;2022-10-24T02:43:43;99190.63;;;10.29;73.66
64679;BME280;51094;53.864;27.676;2022-10-24T02:46:12;99225.34;;;10.64;73.76
64679;BME280;51094;53.864;27.676;2022-10-24T02:48:46;99085.97;;;9.78;73.77
64679;BME280;51094;53.864;27.676;2022-10-24T02:51:17;99152.56;;;10.15;74.33
64679;BME280;51094;53.864;27.676;2022-10-24T02:53:45;99083.19;;;9.68;73.34
64679;BME280;51094;53.864;27.676;2022-10-24T02:56:11;99160.34;;;10.15;73.41
64679;BME280;51094;53.864;27.676;2022-10-24T02:58:38;99204.38;;;10.42;73.89
64679;BME280;51094;53.864;27.676;2022-10-24T03:01:05;99233.47;;;10.60;74.44
64679;BME280;51094;53.864;27.676;2022-10-24T03:03:32;99122.81;;;9.95;73.58
64679;BME280;51094;53.864;27.676;2022-10-24T03:05:58;99223.88;;;10.60;74.29
64679;BME280;51094;53.864;27.676;2022-10-24T03:08:25;99235.72;;;10.64;74.38
64679;BME280;51094;53.864;27.676;2022-10-24T03:10:52;99032.38;;;9.27;73.77
64679;BME280;51094;53.864;27.676;2022-10-24T03:13:18;99203.09;;;10.24;73.48
64679;BME280;51094;53.864;27.676;2022-10-24T03:15:45;99219.91;;;10.68;74.13
64679;BME280;51094;53.864;27.676;2022-10-24T03:18:13;99203.72;;;10.51;73.94
64679;BME280;51094;53.864;27.676;2022-10-24T03:20:39;99142.59;;;10.09;73.77
64679;BME280;51094;53.864;27.676;2022-10-24T03:23:06;99078.81;;;9.68;73.51
64679;BME280;51094;53.864;27.676;2022-10-24T03:25:33;99142.59;;;10.09;73.70
64679;BME280;51094;53.864;27.676;2022-10-24T03:28:00;99226.91;;;10.54;74.05
64679;BME280;51094;53.864;27.676;2022-10-24T03:30:26;99238.25;;;10.53;73.73
64679;BME280;51094;53.864;27.676;2022-10-24T03:32:53;99234.22;;;10.49;73.58
64679;BME280;51094;53.864;27.676;2022-10-24T03:35:20;99198.63;;;10.26;74.15
64679;BME280;51094;53.864;27.676;2022-10-24T03:37:46;99160.38;;;10.02;73.80
64679;BME280;51094;53.864;27.676;2022-10-24T03:40:13;99249.16;;;10.58;73.83
64679;BME280;51094;53.864;27.676;2022-10-24T03:42:40;99234.22;;;10.49;73.71
64679;BME280;51094;53.864;27.676;2022-10-24T03:45:07;99060.69;;;9.30;73.88
64679;BME280;51094;53.864;27.676;2022-10-24T03:47:34;99167.19;;;9.92;73.65
64679;BME280;51094;53.864;27.676;2022-10-24T03:50:01;99130.09;;;9.78;73.87
64679;BME280;51094;53.864;27.676;2022-10-24T03:52:28;99250.84;;;10.47;73.93
64679;BME280;51094;53.864;27.676;2022-10-24T03:54:55;99216.69;;;10.15;73.44
64679;BME280;51094;53.864;27.676;2022-10-24T03:57:21;98979.47;;;8.66;73.36
64679;BME280;51094;53.864;27.676;2022-10-24T03:59:48;99257.97;;;10.32;73.90
64679;BME280;51094;53.864;27.676;2022-10-24T04:02:15;99263.91;;;10.34;73.55
64679;BME280;51094;53.864;27.676;2022-10-24T04:04:42;99032.81;;;8.96;73.40
64679;BME280;51094;53.864;27.676;2022-10-24T04:07:08;99271.13;;;10.42;73.17
64679;BME280;51094;53.864;27.676;2022-10-24T04:09:35;99270.88;;;10.33;72.61
64679;BME280;51094;53.864;27.676;2022-10-24T04:12:02;99229.81;;;9.75;72.99
64679;BME280;51094;53.864;27.676;2022-10-24T04:14:29;99283.44;;;10.27;73.08
64679;BME280;51094;53.864;27.676;2022-10-24T04:16:55;99194.09;;;9.66;73.46
64679;BME280;51094;53.864;27.676;2022-10-24T04:19:22;99262.00;;;10.11;73.23
64679;BME280;51094;53.864;27.676;2022-10-24T04:21:49;99262.31;;;10.06;73.34
64679;BME280;51094;53.864;27.676;2022-10-24T04:24:16;99269.00;;;10.23;73.83
64679;BME280;51094;53.864;27.676;2022-10-24T04:26:42;99272.81;;;10.17;73.27
64679;BME280;51094;53.864;27.676;2022-10-24T04:29:09;99270.75;;;10.10;73.45
64679;BME280;51094;53.864;27.676;2022-10-24T04:31:36;99103.16;;;9.04;73.50
64679;BME280;51094;53.864;27.676;2022-10-24T04:34:03;99065.44;;;8.73;73.24
64679;BME280;51094;53.864;27.676;2022-10-24T04:36:32;99272.00;;;9.91;73.57
64679;BME280;51094;53.864;27.676;2022-10-24T04:38:59;99279.28;;;9.86;73.10
64679;BME280;51094;53.864;27.676;2022-10-24T04:41:30;99306.59;;;9.79;73.52
64679;BME280;51094;53.864;27.676;2022-10-24T04:43:57;99268.66;;;9.77;73.70
64679;BME280;51094;53.864;27.676;2022-10-24T04:46:24;99276.16;;;9.81;73.83
64679;BME280;51094;53.864;27.676;2022-10-24T04:48:51;99148.81;;;9.07;73.19
64679;BME280;51094;53.864;27.676;2022-10-24T04:51:18;99162.91;;;9.15;73.93
64679;BME280;51094;53.864;27.676;2022-10-24T04:53:48;99210.81;;;9.49;73.16
64679;BME280;51094;53.864;27.676;2022-10-24T04:56:16;99269.22;;;9.94;73.51
64679;BME280;51094;53.864;27.676;2022-10-24T04:58:42;99203.66;;;9.53;73.05
64679;BME280;51094;53.864;27.676;2022-10-24T05:01:09;99170.19;;;9.23;72.72
64679;BME280;51094;53.864;27.676;2022-10-24T05:03:36;99171.34;;;9.31;72.75
64679;BME280;51094;53.864;27.676;2022-10-24T05:06:03;99274.16;;;9.97;73.46
64679;BME280;51094;53.864;27.676;2022-10-24T05:08:30;99147.34;;;9.15;72.98
64679;BME280;51094;53.864;27.676;2022-10-24T05:10:57;99165.44;;;9.29;72.64
64679;BME280;51094;53.864;27.676;2022-10-24T05:13:23;99124.53;;;9.08;72.81
64679;BME280;51094;53.864;27.676;2022-10-24T05:15:50;99144.13;;;8.99;71.95
64679;BME280;51094;53.864;27.676;2022-10-24T05:18:20;99262.44;;;9.92;72.63
64679;BME280;51094;53.864;27.676;2022-10-24T05:20:46;99288.00;;;9.85;72.20
64679;BME280;51094;53.864;27.676;2022-10-24T05:23:13;99179.66;;;9.37;72.39
64679;BME280;51094;53.864;27.676;2022-10-24T05:25:40;99289.75;;;9.97;72.22
64679;BME280;51094;53.864;27.676;2022-10-24T05:28:07;99258.28;;;9.64;71.73
64679;BME280;51094;53.864;27.676;2022-10-24T05:30:33;99294.03;;;9.86;71.82
64679;BME280;51094;53.864;27.676;2022-10-24T05:33:00;99119.88;;;8.73;71.69
64679;BME280;51094;53.864;27.676;2022-10-24T05:35:27;99260.03;;;9.63;72.09
64679;BME280;51094;53.864;27.676;2022-10-24T05:37:54;99242.28;;;9.45;71.72
64679;BME280;51094;53.864;27.676;2022-10-24T05:40:20;99263.16;;;9.68;70.92
64679;BME280;51094;53.864;27.676;2022-10-24T05:42:47;99225.59;;;9.22;70.68
64679;BME280;51094;53.864;27.676;2022-10-24T05:45:15;99300.97;;;9.73;71.26
64679;BME280;51094;53.864;27.676;2022-10-24T05:47:41;99301.06;;;9.71;71.84
64679;BME280;51094;53.864;27.676;2022-10-24T05:50:09;99305.13;;;9.75;71.49
64679;BME280;51094;53.864;27.676;2022-10-24T05:52:37;99010.00;;;7.96;70.96
64679;BME280;51094;53.864;27.676;2022-10-24T05:55:09;99303.69;;;9.84;70.45
64679;BME280;51094;53.864;27.676;2022-10-24T05:57:39;99337.31;;;9.73;70.78
64679;BME280;51094;53.864;27.676;2022-10-24T06:00:07;99333.69;;;9.75;71.78
64679;BME280;51094;53.864;27.676;2022-10-24T06:02:40;99311.47;;;9.84;71.18
64679;BME280;51094;53.864;27.676;2022-10-24T06:05:08;99201.63;;;9.18;70.54
64679;BME280;51094;53.864;27.676;2022-10-24T06:07:35;99317.63;;;9.95;70.02
64679;BME280;51094;53.864;27.676;2022-10-24T06:10:03;99310.66;;;9.96;69.60
64679;BME280;51094;53.864;27.676;2022-10-24T06:12:30;99319.06;;;9.99;69.95
64679;BME280;51094;53.864;27.676;2022-10-24T06:14:58;99163.84;;;9.02;69.68
64679;BME280;51094;53.864;27.676;2022-10-24T06:17:25;99357.81;;;10.02;70.03
64679;BME280;51094;53.864;27.676;2022-10-24T06:19:52;99289.88;;;9.83;69.29
64679;BME280;51094;53.864;27.676;2022-10-24T06:22:19;99337.66;;;10.06;68.78
64679;BME280;51094;53.864;27.676;2022-10-24T06:24:49;99084.00;;;8.54;68.95
64679;BME280;51094;53.864;27.676;2022-10-24T06:27:16;99332.78;;;10.01;68.22
64679;BME280;51094;53.864;27.676;2022-10-24T06:29:43;98955.19;;;7.63;68.10
64679;BME280;51094;53.864;27.676;2022-10-24T06:32:10;99349.50;;;9.97;69.36
64679;BME280;51094;53.864;27.676;2022-10-24T06:34:36;99323.44;;;10.12;69.35
64679;BME280;51094;53.864;27.676;2022-10-24T06:37:03;99316.06;;;10.18;69.56
64679;BME280;51094;53.864;27.676;2022-10-24T06:39:30;99260.97;;;9.75;68.30
64679;BME280;51094;53.864;27.676;2022-10-24T06:41:57;99313.69;;;10.28;68.79
64679;BME280;51094;53.864;27.676;2022-10-24T06:44:25;99310.47;;;10.24;68.01
64679;BME280;51094;53.864;27.676;2022-10-24T06:46:51;99187.03;;;9.43;68.34
64679;BME280;51094;53.864;27.676;2022-10-24T06:49:18;99232.63;;;9.72;68.30
64679;BME280;51094;53.864;27.676;2022-10-24T06:51:45;99312.84;;;10.40;67.74
64679;BME280;51094;53.864;27.676;2022-10-24T06:54:11;99314.59;;;10.52;67.47
64679;BME280;51094;53.864;27.676;2022-10-24T06:56:39;99215.69;;;9.92;68.01
64679;BME280;51094;53.864;27.676;2022-10-24T06:59:10;99271.81;;;10.32;67.68
64679;BME280;51094;53.864;27.676;2022-10-24T07:01:37;99313.41;;;10.82;67.32
64679;BME280;51094;53.864;27.676;2022-10-24T07:04:04;99076.16;;;9.45;67.27
64679;BME280;51094;53.864;27.676;2022-10-24T07:06:31;99316.84;;;11.06;67.04
64679;BME280;51094;53.864;27.676;2022-10-24T07:08:59;99243.03;;;10.59;66.78
64679;BME280;51094;53.864;27.676;2022-10-24T07:11:27;99278.28;;;10.87;66.41
64679;BME280;51094;53.864;27.676;2022-10-24T07:13:54;99336.28;;;11.13;66.69
64679;BME280;51094;53.864;27.676;2022-10-24T07:16:26;99129.25;;;9.90;65.96
64679;BME280;51094;53.864;27.676;2022-10-24T07:18:53;99342.81;;;11.19;65.67
64679;BME280;51094;53.864;27.676;2022-10-24T07:21:25;99342.25;;;11.26;66.20
64679;BME280;51094;53.864;27.676;2022-10-24T07:23:53;99319.72;;;11.14;65.51
64679;BME280;51094;53.864;27.676;2022-10-24T07:26:21;99126.19;;;10.09;66.04
64679;BME280;51094;53.864;27.676;2022-10-24T07:28:48;99310.78;;;11.29;65.43
64679;BME280;51094;53.864;27.676;2022-10-24T07:31:21;99378.53;;;11.41;64.75
64679;BME280;51094;53.864;27.676;2022-10-24T07:33:49;99338.44;;;11.43;65.06
64679;BME280;51094;53.864;27.676;2022-10-24T07:36:18;99301.84;;;11.10;64.88
64679;BME280;51094;53.864;27.676;2022-10-24T07:38:46;99353.22;;;11.43;65.30
64679;BME280;51094;53.864;27.676;2022-10-24T07:41:13;99364.88;;;11.50;64.75
64679;BME280;51094;53.864;27.676;2022-10-24T07:43:40;99325.97;;;11.36;63.97
64679;BME280;51094;53.864;27.676;2022-10-24T07:46:14;99334.50;;;11.38;63.96
64679;BME280;51094;53.864;27.676;2022-10-24T07:48:42;99361.22;;;11.52;64.66
64679;BME280;51094;53.864;27.676;2022-10-24T07:51:11;99346.63;;;11.50;64.76
64679;BME280;51094;53.864;27.676;2022-10-24T07:53:39;99367.19;;;11.65;64.39
64679;BME280;51094;53.864;27.676;2022-10-24T07:56:07;99371.91;;;11.60;63.42
64679;BME280;51094;53.864;27.676;2022-10-24T07:58:36;99376.44;;;11.46;63.91
64679;BME280;51094;53.864;27.676;2022-10-24T08:01:10;99337.25;;;10.99;63.74
64679;BME280;51094;53.864;27.676;2022-10-24T08:03:38;99377.09;;;11.60;64.06
64679;BME280;51094;53.864;27.676;2022-10-24T08:06:10;99389.28;;;11.84;64.00
64679;BME280;51094;53.864;27.676;2022-10-24T08:08:38;99375.94;;;11.88;63.23
64679;BME280;51094;53.864;27.676;2022-10-24T08:11:07;99375.31;;;11.85;63.37
64679;BME280;51094;53.864;27.676;2022-10-24T08:13:34;99342.22;;;11.74;63.18
64679;BME280;51094;53.864;27.676;2022-10-24T08:16:00;99352.13;;;11.93;64.07
64679;BME280;51094;53.864;27.676;2022-10-24T08:18:28;99387.28;;;12.33;62.64
64679;BME280;51094;53.864;27.676;2022-10-24T08:21:01;99151.03;;;10.84;62.52
64679;BME280;51094;53.864;27.676;2022-10-24T08:23:28;99364.63;;;12.23;62.95
64679;BME280;51094;53.864;27.676;2022-10-24T08:25:55;99363.09;;;12.31;61.77
64679;BME280;51094;53.864;27.676;2022-10-24T08:28:22;99251.25;;;11.60;60.61
64679;BME280;51094;53.864;27.676;2022-10-24T08:33:23;99290.09;;;12.09;62.52
64679;BME280;51094;53.864;27.676;2022-10-24T08:35:50;99393.13;;;12.93;61.69
64679;BME280;51094;53.864;27.676;2022-10-24T08:38:18;99387.16;;;13.02;60.78
64679;BME280;51094;53.864;27.676;2022-10-24T08:40:46;99241.88;;;12.26;59.90
64679;BME280;51094;53.864;27.676;2022-10-24T08:43:15;99293.31;;;12.35;58.99
64679;BME280;51094;53.864;27.676;2022-10-24T08:48:35;99276.94;;;12.33;60.13
64679;BME280;51094;53.864;27.676;2022-10-24T08:51:15;99226.50;;;12.12;61.26
64679;BME280;51094;53.864;27.676;2022-10-24T08:53:46;99262.59;;;12.50;60.42
64679;BME280;51094;53.864;27.676;2022-10-24T08:56:13;99064.91;;;11.11;58.37
64679;BME280;51094;53.864;27.676;2022-10-24T08:58:42;99388.03;;;12.80;58.75
64679;BME280;51094;53.864;27.676;2022-10-24T09:01:13;99391.47;;;12.81;59.08
64679;BME280;51094;53.864;27.676;2022-10-24T09:03:45;99399.66;;;12.87;58.59
64679;BME280;51094;53.864;27.676;2022-10-24T09:06:24;99404.84;;;12.65;59.22
64679;BME280;51094;53.864;27.676;2022-10-24T09:08:57;99227.53;;;11.87;60.00
64679;BME280;51094;53.864;27.676;2022-10-24T09:14:20;99233.81;;;12.29;59.24
64679;BME280;51094;53.864;27.676;2022-10-24T09:16:51;99374.16;;;13.45;59.80
64679;BME280;51094;53.864;27.676;2022-10-24T09:19:21;99371.47;;;13.68;58.60
64679;BME280;51094;53.864;27.676;2022-10-24T09:21:50;99401.47;;;13.84;58.20
64679;BME280;51094;53.864;27.676;2022-10-24T09:24:44;99362.63;;;13.80;57.81
64679;BME280;51094;53.864;27.676;2022-10-24T09:27:17;99340.50;;;13.63;57.77
64679;BME280;51094;53.864;27.676;2022-10-24T09:29:51;99287.25;;;13.22;58.19
64679;BME280;51094;53.864;27.676;2022-10-24T09:32:22;99352.91;;;13.82;56.76
64679;BME280;51094;53.864;27.676;2022-10-24T09:34:53;99334.69;;;13.59;55.62
64679;BME280;51094;53.864;27.676;2022-10-24T09:37:42;99408.06;;;13.68;56.84
64679;BME280;51094;53.864;27.676;2022-10-24T09:40:28;99208.31;;;12.87;56.77
64679;BME280;51094;53.864;27.676;2022-10-24T09:43:00;99376.72;;;13.68;56.60
64679;BME280;51094;53.864;27.676;2022-10-24T09:45:37;99302.13;;;13.63;56.91
64679;BME280;51094;53.864;27.676;2022-10-24T09:48:16;99355.16;;;13.96;56.59
64679;BME280;51094;53.864;27.676;2022-10-24T09:50:46;99326.16;;;14.20;55.51
64679;BME280;51094;53.864;27.676;2022-10-24T09:53:27;99325.53;;;14.37;56.54
64679;BME280;51094;53.864;27.676;2022-10-24T09:56:01;99330.03;;;14.46;55.45
64679;BME280;51094;53.864;27.676;2022-10-24T09:58:32;99339.25;;;14.50;54.86
64679;BME280;51094;53.864;27.676;2022-10-24T10:01:20;99341.19;;;14.48;54.62
64679;BME280;51094;53.864;27.676;2022-10-24T10:04:03;99373.56;;;14.26;54.81
64679;BME280;51094;53.864;27.676;2022-10-24T10:06:43;99335.22;;;14.16;55.11
64679;BME280;51094;53.864;27.676;2022-10-24T10:09:12;99341.53;;;14.13;55.08
64679;BME280;51094;53.864;27.676;2022-10-24T10:11:40;99345.94;;;14.13;54.76
64679;BME280;51094;53.864;27.676;2022-10-24T10:14:27;99356.69;;;13.98;55.49
64679;BME280;51094;53.864;27.676;2022-10-24T10:17:04;99397.75;;;13.87;55.17
64679;BME280;51094;53.864;27.676;2022-10-24T10:19:35;99361.97;;;13.87;56.24
64679;BME280;51094;53.864;27.676;2022-10-24T10:22:21;99358.50;;;13.98;56.38
64679;BME280;51094;53.864;27.676;2022-10-24T10:24:48;99361.56;;;14.03;55.21
64679;BME280;51094;53.864;27.676;2022-10-24T10:27:34;99355.63;;;13.80;55.12
64679;BME280;51094;53.864;27.676;2022-10-24T10:30:18;99367.00;;;13.58;55.36
64679;BME280;51094;53.864;27.676;2022-10-24T10:33:13;99359.19;;;13.47;56.46
64679;BME280;51094;53.864;27.676;2022-10-24T10:38:42;99357.72;;;13.11;56.53
64679;BME280;51094;53.864;27.676;2022-10-24T10:44:15;99404.03;;;12.64;57.35
64679;BME280;51094;53.864;27.676;2022-10-24T10:49:29;99320.56;;;12.53;58.61
64679;BME280;51094;53.864;27.676;2022-10-24T10:52:15;99300.41;;;12.22;58.79
64679;BME280;51094;53.864;27.676;2022-10-24T10:58:01;99355.53;;;12.40;59.83
64679;BME280;51094;53.864;27.676;2022-10-24T11:03:38;99353.47;;;11.98;61.44
64679;BME280;51094;53.864;27.676;2022-10-24T11:06:27;99347.91;;;12.03;62.14
64679;BME280;51094;53.864;27.676;2022-10-24T11:09:07;99344.72;;;12.11;62.21
64679;BME280;51094;53.864;27.676;2022-10-24T11:11:42;99255.78;;;11.23;62.17
64679;BME280;51094;53.864;27.676;2022-10-24T11:14:35;99335.69;;;12.15;62.01
64679;BME280;51094;53.864;27.676;2022-10-24T11:17:16;99266.44;;;11.66;61.58
64679;BME280;51094;53.864;27.676;2022-10-24T11:19:52;99040.00;;;10.27;62.25
64679;BME280;51094;53.864;27.676;2022-10-24T11:22:25;99186.28;;;11.12;62.42
64679;BME280;51094;53.864;27.676;2022-10-24T11:25:04;99284.56;;;11.68;62.14
64679;BME280;51094;53.864;27.676;2022-10-24T11:27:37;99360.28;;;11.88;62.74
64679;BME280;51094;53.864;27.676;2022-10-24T11:30:15;99337.00;;;11.74;62.91
64679;BME280;51094;53.864;27.676;2022-10-24T11:32:51;99112.81;;;10.39;63.22
64679;BME280;51094;53.864;27.676;2022-10-24T11:35:31;99337.78;;;11.87;63.26
64679;BME280;51094;53.864;27.676;2022-10-24T11:38:11;99325.97;;;11.71;63.26
64679;BME280;51094;53.864;27.676;2022-10-24T11:40:42;99330.13;;;11.62;63.04
64679;BME280;51094;53.864;27.676;2022-10-24T11:43:28;99319.06;;;11.82;62.90
64679;BME280;51094;53.864;27.676;2022-10-24T11:46:18;99345.38;;;11.90;63.17
64679;BME280;51094;53.864;27.676;2022-10-24T11:51:52;99199.81;;;10.93;63.63
64679;BME280;51094;53.864;27.676;2022-10-24T11:54:25;99212.69;;;10.95;63.69
64679;BME280;51094;53.864;27.676;2022-10-24T11:57:00;99343.03;;;11.75;64.00
64679;BME280;51094;53.864;27.676;2022-10-24T11:59:28;99298.94;;;11.49;64.11
64679;BME280;51094;53.864;27.676;2022-10-24T12:02:29;99174.44;;;10.73;62.96
64679;BME280;51094;53.864;27.676;2022-10-24T12:08:07;99212.22;;;10.66;63.96
64679;BME280;51094;53.864;27.676;2022-10-24T12:16:19;99308.56;;;11.95;63.87
64679;BME280;51094;53.864;27.676;2022-10-24T12:18:58;99312.03;;;12.07;63.47
64679;BME280;51094;53.864;27.676;2022-10-24T12:21:36;99306.09;;;11.70;63.48
64679;BME280;51094;53.864;27.676;2022-10-24T12:24:18;99257.06;;;11.63;63.38
64679;BME280;51094;53.864;27.676;2022-10-24T12:26:54;99316.38;;;11.95;63.64
64679;BME280;51094;53.864;27.676;2022-10-24T12:29:25;99283.75;;;11.78;64.08
64679;BME280;51094;53.864;27.676;2022-10-24T12:31:53;99200.06;;;11.25;63.96
64679;BME280;51094;53.864;27.676;2022-10-24T12:39:47;99303.31;;;11.84;63.99
64679;BME280;51094;53.864;27.676;2022-10-24T12:44:46;99291.72;;;11.53;64.69
64679;BME280;51094;53.864;27.676;2022-10-24T12:56:00;99288.19;;;11.54;64.43
64679;BME280;51094;53.864;27.676;2022-10-24T12:58:33;99372.00;;;11.59;64.70
64679;BME280;51094;53.864;27.676;2022-10-24T13:01:24;99306.63;;;11.51;64.93
64679;BME280;51094;53.864;27.676;2022-10-24T13:07:27;99298.09;;;11.49;65.34
64679;BME280;51094;53.864;27.676;2022-10-24T13:10:23;99300.03;;;11.58;65.36
64679;BME280;51094;53.864;27.676;2022-10-24T13:13:23;99297.69;;;11.66;65.29
64679;BME280;51094;53.864;27.676;2022-10-24T13:18:39;99303.38;;;11.71;64.85
64679;BME280;51094;53.864;27.676;2022-10-24T13:23:45;99250.84;;;11.07;64.50
64679;BME280;51094;53.864;27.676;2022-10-24T13:29:13;99295.34;;;11.39;65.82
64679;BME280;51094;53.864;27.676;2022-10-24T13:31:45;99287.31;;;11.42;66.11
64679;BME280;51094;53.864;27.676;2022-10-24T13:34:16;99186.28;;;10.77;65.86
64679;BME280;51094;53.864;27.676;2022-10-24T13:36:48;99333.13;;;11.45;65.95
64679;BME280;51094;53.864;27.676;2022-10-24T13:39:23;99142.34;;;10.38;66.12
64679;BME280;51094;53.864;27.676;2022-10-24T13:41:58;99199.81;;;10.93;65.89
64679;BME280;51094;53.864;27.676;2022-10-24T13:44:45;99192.19;;;10.79;66.36
64679;BME280;51094;53.864;27.676;2022-10-24T13:47:24;99286.41;;;11.30;66.92
64679;BME280;51094;53.864;27.676;2022-10-24T13:49:56;99210.31;;;10.92;67.18
64679;BME280;51094;53.864;27.676;2022-10-24T13:52:42;99278.97;;;11.26;67.27
64679;BME280;51094;53.864;27.676;2022-10-24T14:00:34;99071.69;;;9.96;67.87
64679;BME280;51094;53.864;27.676;2022-10-24T14:03:10;99267.56;;;11.16;67.76
64679;BME280;51094;53.864;27.676;2022-10-24T14:05:43;99271.50;;;11.21;67.84
64679;BME280;51094;53.864;27.676;2022-10-24T14:08:21;99283.09;;;11.28;67.95
64679;BME280;51094;53.864;27.676;2022-10-24T14:10:51;99300.28;;;11.31;67.57
64679;BME280;51094;53.864;27.676;2022-10-24T14:13:19;99162.06;;;10.40;67.93
64679;BME280;51094;53.864;27.676;2022-10-24T14:15:53;99276.94;;;11.18;68.40
64679;BME280;51094;53.864;27.676;2022-10-24T14:18:20;99270.28;;;11.14;68.05
64679;BME280;51094;53.864;27.676;2022-10-24T14:20:59;99134.81;;;10.22;68.57
64679;BME280;51094;53.864;27.676;2022-10-24T14:23:31;99267.25;;;11.20;68.69
64679;BME280;51094;53.864;27.676;2022-10-24T14:26:02;99046.72;;;9.70;68.15
64679;BME280;51094;53.864;27.676;2022-10-24T14:28:35;99151.13;;;10.48;68.92
64679;BME280;51094;53.864;27.676;2022-10-24T14:31:15;99094.47;;;10.16;69.04
64679;BME280;51094;53.864;27.676;2022-10-24T14:33:46;99266.75;;;11.26;68.73
64679;BME280;51094;53.864;27.676;2022-10-24T14:36:14;99150.69;;;10.54;68.34